Friday, April 27, 2018, 2:41 AM EDT
Back to Local

KABE, Lehigh Valley International Airport

Location: Allentown, PA, United States Lat: 40.65
Local Time: 2:41 AM EDT ( 6:41 GMT) Lon: -75.45
Time Zone: US/Eastern Elev: 393 ft

Show me the last for .
Show Decoded

2018-04-26 16:51 METAR KABE 262051Z 26010KT 10SM CLR 19/05 A2980 RMK AO2 SLP091 T01890050 53003 =
2018-04-26 15:51 METAR KABE 261951Z 24012G17KT 10SM CLR 18/06 A2979 RMK AO2 SLP087 T01830056 =
2018-04-26 14:51 METAR KABE 261851Z 29011KT 10SM CLR 18/05 A2980 RMK AO2 SLP089 T01780050 =
2018-04-26 13:51 METAR KABE 261751Z 27009G16KT 10SM FEW043 17/06 A2979 RMK AO2 SLP088 T01720056
                 10172 20106 58001 =
2018-04-26 12:51 METAR KABE 261651Z 24011G17KT 10SM BKN040 15/05 A2980 RMK AO2 SLP090 T01500050 =
2018-04-26 11:51 METAR KABE 261551Z 28015G21KT 10SM SCT037 14/05 A2980 RMK AO2 SLP091 T01440050 =
2018-04-26 10:51 METAR KABE 261451Z AUTO 29009KT 10SM OVC040 13/04 A2980 RMK AO2 SLP089 T01330039
                 51014 =
2018-04-26 09:51 METAR KABE 261351Z 26010G17KT 10SM OVC034 13/04 A2978 RMK AO2 SLP085 T01280044 =
2018-04-26 08:51 METAR KABE 261251Z 30013G23KT 10SM BKN033 12/04 A2977 RMK AO2 SLP083 T01220039 =
2018-04-26 07:51 METAR KABE 261151Z 29008KT 10SM BKN034 11/03 A2975 RMK AO2 SLP075 70003
                 T01060033 10150 20094 51022 =
2018-04-26 06:51 METAR KABE 261051Z 27006KT 10SM CLR 09/03 A2975 RMK AO2 SLP073 T00940033 =
2018-04-26 05:51 METAR KABE 260951Z 28011KT 10SM BKN034 10/04 A2972 RMK AO2 SLP064 T01000039 =
2018-04-26 04:51 METAR KABE 260851Z 28013KT 10SM SCT026 12/06 A2969 RMK AO2 SLP053 T01170061
                 53010 =
2018-04-26 04:40 METAR KABE 260840Z 29010G18KT 10SM BKN027 BKN055 12/07 A2968 RMK AO2 T01220067 =
2018-04-26 03:51 METAR KABE 260751Z 29006KT 10SM FEW029 OVC039 14/09 A2966 RMK AO2 SLP044
                 T01390089 =
2018-04-26 02:51 METAR KABE 260651Z 29005KT 10SM OVC037 14/09 A2965 RMK AO2 SLP041 T01440094 =

Support USWX by starting your Amazon purchase here.